createdAt,value
2019-03-05T00:00:35.286Z,3.25
2019-03-05T00:03:04.722Z,2.95
2019-03-05T00:05:33.498Z,2.50
2019-03-05T00:08:02.218Z,2.60
2019-03-05T00:10:31.085Z,3.02
2019-03-05T00:12:59.918Z,2.92
2019-03-05T00:15:28.790Z,2.90
2019-03-05T00:17:57.384Z,2.60
2019-03-05T00:20:25.938Z,2.50
2019-03-05T00:22:54.742Z,2.50
2019-03-05T00:25:23.285Z,2.55
2019-03-05T00:28:01.202Z,2.67
2019-03-05T00:30:37.086Z,2.83
2019-03-05T00:33:13.906Z,2.90
2019-03-05T00:35:55.562Z,2.33
2019-03-05T00:38:32.903Z,2.42
2019-03-05T00:41:07.291Z,2.67
2019-03-05T00:43:45.306Z,3.00
2019-03-05T00:46:26.067Z,3.30
2019-03-05T00:49:03.298Z,3.40
2019-03-05T00:52:45.150Z,3.00
2019-03-05T00:55:23.618Z,2.58
2019-03-05T00:58:08.270Z,2.40
2019-03-05T01:01:05.709Z,1.67
2019-03-05T01:06:18.461Z,2.42
2019-03-05T01:08:46.955Z,1.95
2019-03-05T01:11:15.914Z,2.37
2019-03-05T01:13:44.462Z,1.77
2019-03-05T01:16:14.590Z,2.67
2019-03-05T01:18:43.462Z,3.08
2019-03-05T01:21:12.565Z,3.00
2019-03-05T01:23:41.041Z,2.60
2019-03-05T01:26:09.866Z,2.40
2019-03-05T01:28:38.417Z,1.67
2019-03-05T01:31:17.398Z,1.90
2019-03-05T01:33:50.414Z,2.37
2019-03-05T01:36:21.773Z,1.98
2019-03-05T01:38:59.969Z,2.58
2019-03-05T01:41:28.773Z,2.37
2019-03-05T01:43:57.989Z,2.80
2019-03-05T01:46:26.570Z,2.22
2019-03-05T01:48:55.617Z,2.20
2019-03-05T01:51:24.460Z,2.55
2019-03-05T01:53:52.973Z,2.75
2019-03-05T01:56:21.561Z,3.00
2019-03-05T01:58:50.329Z,2.27
2019-03-05T02:01:18.916Z,2.60
2019-03-05T02:03:47.441Z,2.08
2019-03-05T02:06:16.229Z,2.17
2019-03-05T02:08:44.974Z,1.22
2019-03-05T02:11:13.797Z,1.85
2019-03-05T02:13:42.525Z,1.60
2019-03-05T02:16:11.181Z,1.87
2019-03-05T02:18:39.657Z,2.10
2019-03-05T02:21:08.421Z,1.72
2019-03-05T02:24:07.561Z,1.62
2019-03-05T02:28:48.295Z,1.85
2019-03-05T02:31:27.949Z,1.92
2019-03-05T02:34:07.949Z,1.37
2019-03-05T02:38:51.481Z,1.98
2019-03-05T02:41:28.307Z,2.02
2019-03-05T02:45:12.994Z,1.75
2019-03-05T02:48:14.265Z,1.85
2019-03-05T02:53:00.581Z,2.08
2019-03-05T02:55:47.022Z,2.15
2019-03-05T02:58:14.634Z,1.70
2019-03-05T03:03:35.722Z,2.20
2019-03-05T03:06:09.257Z,1.20
2019-03-05T03:08:38.009Z,1.60
2019-03-05T03:11:06.554Z,1.95
2019-03-05T03:13:35.374Z,1.85
2019-03-05T03:16:03.991Z,1.82
2019-03-05T03:18:32.550Z,1.90
2019-03-05T03:21:01.229Z,1.95
2019-03-05T03:23:29.753Z,1.92
2019-03-05T03:25:58.966Z,1.00
2019-03-05T03:28:27.513Z,1.40
2019-03-05T03:30:56.058Z,1.90
2019-03-05T03:33:24.548Z,1.85
2019-03-05T03:35:53.360Z,1.50
2019-03-05T03:38:21.866Z,1.72
2019-03-05T03:40:50.704Z,1.95
2019-03-05T03:43:19.460Z,1.32
2019-03-05T03:45:47.985Z,1.55
2019-03-05T03:48:16.468Z,2.25
2019-03-05T03:50:45.359Z,1.70
2019-03-05T03:53:13.829Z,1.65
2019-03-05T03:55:42.740Z,2.10
2019-03-05T03:58:11.274Z,1.65
2019-03-05T04:00:39.795Z,1.72
2019-03-05T04:03:08.616Z,1.45
2019-03-05T04:05:37.129Z,1.32
2019-03-05T04:08:05.633Z,1.85
2019-03-05T04:10:34.222Z,1.62
2019-03-05T04:13:02.696Z,1.62
2019-03-05T04:15:31.232Z,1.87
2019-03-05T04:17:59.704Z,1.90
2019-03-05T04:20:31.445Z,1.62
2019-03-05T04:22:59.905Z,1.62
2019-03-05T04:25:28.369Z,2.05
2019-03-05T04:27:57.196Z,2.00
2019-03-05T04:30:25.766Z,2.12
2019-03-05T04:32:54.297Z,1.87
2019-03-05T04:35:23.094Z,1.70
2019-03-05T04:37:51.556Z,2.72
2019-03-05T04:40:20.044Z,1.90
2019-03-05T04:42:48.641Z,1.45
2019-03-05T04:45:33.180Z,1.77
2019-03-05T04:48:01.854Z,1.57
2019-03-05T04:50:49.176Z,2.45
2019-03-05T04:53:18.176Z,2.65
2019-03-05T04:55:46.664Z,2.77
2019-03-05T04:58:15.524Z,2.12
2019-03-05T05:00:44.079Z,2.20
2019-03-05T05:03:12.592Z,3.95
2019-03-05T05:05:41.056Z,3.33
2019-03-05T05:08:09.523Z,2.98
2019-03-05T05:10:38.332Z,2.72
2019-03-05T05:13:06.780Z,3.42
2019-03-05T05:15:35.376Z,1.95
2019-03-05T05:18:04.872Z,3.08
2019-03-05T05:20:33.324Z,4.30
2019-03-05T05:23:01.769Z,2.58
2019-03-05T05:25:30.395Z,3.25
2019-03-05T05:27:59.174Z,3.52
2019-03-05T05:30:32.644Z,4.10
2019-03-05T05:33:01.164Z,2.80
2019-03-05T05:35:29.676Z,3.55
2019-03-05T05:37:58.160Z,3.17
2019-03-05T05:40:28.476Z,3.37
2019-03-05T05:42:57.083Z,3.90
2019-03-05T05:45:27.533Z,5.20
2019-03-05T05:47:55.973Z,4.65
2019-03-05T05:50:24.431Z,3.60
2019-03-05T05:52:52.880Z,4.42
2019-03-05T05:55:21.955Z,3.80
2019-03-05T05:57:50.439Z,3.75
2019-03-05T06:00:19.003Z,2.47
2019-03-05T06:02:47.527Z,4.72
2019-03-05T06:05:15.995Z,3.37
2019-03-05T06:07:44.776Z,4.72
2019-03-05T06:10:13.373Z,3.52
2019-03-05T06:12:42.056Z,3.37
2019-03-05T06:15:10.661Z,5.30
2019-03-05T06:17:39.457Z,3.33
2019-03-05T06:20:10.024Z,3.85
2019-03-05T06:22:38.507Z,3.05
2019-03-05T06:25:07.123Z,3.40
2019-03-05T06:27:36.075Z,2.98
2019-03-05T06:30:05.271Z,2.77
2019-03-05T06:32:33.783Z,4.30
2019-03-05T06:35:02.625Z,4.22
2019-03-05T06:37:33.046Z,3.67
2019-03-05T06:39:59.951Z,4.60
2019-03-05T06:42:28.479Z,4.12
2019-03-05T06:44:56.954Z,3.15
2019-03-05T06:47:25.444Z,4.62
2019-03-05T06:49:53.919Z,3.58
2019-03-05T06:52:22.390Z,4.37
2019-03-05T06:54:50.835Z,2.45
2019-03-05T06:57:19.267Z,4.20
2019-03-05T06:59:47.771Z,3.92
2019-03-05T07:02:16.250Z,5.10
2019-03-05T07:04:49.019Z,3.85
2019-03-05T07:07:17.484Z,2.30
2019-03-05T07:10:00.434Z,4.45
2019-03-05T07:12:43.633Z,5.17
2019-03-05T07:16:20.639Z,3.80
2019-03-05T07:18:57.287Z,4.92
2019-03-05T07:21:51.579Z,5.03
2019-03-05T07:24:54.567Z,4.58
2019-03-05T07:27:30.210Z,3.60
2019-03-05T07:30:04.155Z,5.05
2019-03-05T07:32:32.639Z,4.75
2019-03-05T07:35:01.130Z,4.53
2019-03-05T07:37:30.149Z,4.83
2019-03-05T07:39:59.105Z,5.45
2019-03-05T07:42:27.558Z,5.40
2019-03-05T07:44:56.119Z,4.55
2019-03-05T07:47:24.630Z,4.35
2019-03-05T07:49:53.078Z,5.90
2019-03-05T07:52:21.514Z,4.17
2019-03-05T07:54:52.497Z,4.42
2019-03-05T07:57:19.046Z,3.27
2019-03-05T07:59:47.523Z,6.00
2019-03-05T08:02:16.074Z,5.90
2019-03-05T08:04:45.174Z,5.65
2019-03-05T08:10:44.818Z,4.62
2019-03-05T08:13:19.302Z,5.20
2019-03-05T08:16:04.996Z,5.80
2019-03-05T08:18:34.528Z,4.83
2019-03-05T08:21:03.010Z,5.25
2019-03-05T08:23:31.698Z,5.95
2019-03-05T08:26:00.186Z,4.20
2019-03-05T08:28:28.731Z,5.05
2019-03-05T08:30:57.238Z,4.55
2019-03-05T08:33:25.730Z,5.72
2019-03-05T08:35:54.198Z,3.22
2019-03-05T08:38:22.710Z,5.33
2019-03-05T08:40:51.203Z,5.58
2019-03-05T08:43:19.794Z,5.43
2019-03-05T08:45:48.291Z,5.20
2019-03-05T08:48:16.758Z,5.45
2019-03-05T08:50:45.278Z,6.42
2019-03-05T08:53:13.866Z,5.40
2019-03-05T08:55:42.762Z,5.25
2019-03-05T08:58:11.222Z,4.40
2019-03-05T09:00:39.722Z,4.75
2019-03-05T09:03:08.290Z,4.75
2019-03-05T09:05:36.843Z,4.28
2019-03-05T09:08:05.507Z,5.08
2019-03-05T09:10:34.357Z,4.00
2019-03-05T09:13:03.202Z,4.28
2019-03-05T09:15:31.670Z,3.20
2019-03-05T09:18:00.138Z,3.47
2019-03-05T09:20:28.678Z,3.55
2019-03-05T09:22:57.250Z,3.17
2019-03-05T09:25:25.974Z,3.77
2019-03-05T09:27:55.405Z,2.62
2019-03-05T09:30:23.735Z,4.08
2019-03-05T09:32:52.325Z,3.25
2019-03-05T09:35:20.937Z,3.58
2019-03-05T09:37:49.377Z,4.30
2019-03-05T09:40:20.118Z,4.13
2019-03-05T09:42:48.694Z,4.40
2019-03-05T09:45:17.406Z,4.85
2019-03-05T09:47:46.206Z,3.47
2019-03-05T09:50:16.094Z,4.30
2019-03-05T09:52:54.454Z,4.30
2019-03-05T09:55:15.673Z,3.67
2019-03-05T09:57:44.453Z,4.53
2019-03-05T10:00:15.753Z,3.87
2019-03-05T10:02:44.341Z,4.28
2019-03-05T10:05:13.745Z,4.15
2019-03-05T10:07:42.310Z,3.42
2019-03-05T10:10:12.957Z,3.95
2019-03-05T10:12:41.541Z,4.55
2019-03-05T10:15:13.181Z,4.28
2019-03-05T10:17:42.222Z,4.35
2019-03-05T10:20:13.807Z,4.56
2019-03-05T10:22:42.742Z,4.28
2019-03-05T10:25:12.954Z,4.08
2019-03-05T10:27:40.445Z,3.35
2019-03-05T10:30:24.092Z,3.83
2019-03-05T10:32:42.114Z,3.55
2019-03-05T10:35:10.642Z,3.80
2019-03-05T10:37:39.225Z,4.03
2019-03-05T10:40:09.453Z,3.83
2019-03-05T10:42:37.881Z,3.42
2019-03-05T10:45:07.017Z,4.95
2019-03-05T10:47:35.529Z,3.47
2019-03-05T10:50:14.843Z,3.22
2019-03-05T10:52:33.297Z,3.95
2019-03-05T10:55:01.733Z,3.27
2019-03-05T10:57:30.270Z,2.80
2019-03-05T10:59:59.101Z,3.37
2019-03-05T11:02:27.653Z,2.85
2019-03-05T11:04:56.139Z,2.98
2019-03-05T11:07:24.595Z,3.20
2019-03-05T11:09:53.436Z,3.02
2019-03-05T11:12:22.127Z,2.70
2019-03-05T11:14:50.715Z,2.60
2019-03-05T11:17:19.211Z,2.17
2019-03-05T11:19:47.712Z,2.50
2019-03-05T11:22:16.183Z,2.83
2019-03-05T11:24:44.766Z,2.67
2019-03-05T11:27:13.261Z,2.65
2019-03-05T11:29:41.775Z,2.20
2019-03-05T11:32:10.311Z,2.37
2019-03-05T11:34:38.766Z,2.65
2019-03-05T11:37:07.303Z,2.25
2019-03-05T11:39:36.233Z,2.30
2019-03-05T11:42:05.133Z,1.68
2019-03-05T11:44:33.758Z,2.17
2019-03-05T11:47:02.190Z,2.45
2019-03-05T11:49:30.665Z,2.37
2019-03-05T11:51:59.470Z,2.20
2019-03-05T11:54:28.306Z,1.92
2019-03-05T11:56:56.770Z,2.20
2019-03-05T11:59:25.241Z,1.87
2019-03-05T12:01:53.850Z,2.20
2019-03-05T12:04:22.668Z,2.27
2019-03-05T12:06:51.580Z,2.60
2019-03-05T12:09:20.184Z,2.70
2019-03-05T12:11:48.716Z,2.55
2019-03-05T12:14:17.196Z,3.08
2019-03-05T12:16:45.688Z,2.77
2019-03-05T12:19:14.996Z,3.45
2019-03-05T12:21:43.488Z,2.83
2019-03-05T12:24:12.532Z,2.52
2019-03-05T12:26:41.064Z,2.15
2019-03-05T12:29:09.529Z,2.35
2019-03-05T12:31:37.979Z,2.27
2019-03-05T12:34:06.515Z,2.00
2019-03-05T12:36:35.280Z,1.90
2019-03-05T12:39:05.168Z,1.76
2019-03-05T12:41:33.656Z,1.90
2019-03-05T12:44:02.109Z,2.52
2019-03-05T12:46:31.176Z,1.77
2019-03-05T12:48:59.824Z,1.80
2019-03-05T12:51:28.288Z,2.42
2019-03-05T12:53:56.767Z,2.12
2019-03-05T12:56:25.283Z,2.08
2019-03-05T12:58:53.727Z,1.98
2019-03-05T13:01:22.475Z,3.77
2019-03-05T13:03:50.968Z,2.92
2019-03-05T13:06:19.567Z,2.27
2019-03-05T13:08:48.051Z,2.45
2019-03-05T13:11:16.607Z,3.35
2019-03-05T13:13:47.494Z,3.58
2019-03-05T13:16:14.072Z,3.37
2019-03-05T13:18:42.571Z,2.80
2019-03-05T13:21:11.023Z,2.20
2019-03-05T13:23:41.259Z,3.52
2019-03-05T13:26:09.751Z,2.47
2019-03-05T13:28:40.637Z,3.20
2019-03-05T13:31:07.155Z,2.52
2019-03-05T13:33:37.987Z,2.05
2019-03-05T13:36:05.571Z,3.05
2019-03-05T13:38:33.603Z,1.50
2019-03-05T13:41:02.047Z,2.08
2019-03-05T13:43:30.495Z,2.17
2019-03-05T13:45:59.011Z,2.10
2019-03-05T13:50:46.394Z,3.30
2019-03-05T13:54:00.850Z,2.20
2019-03-05T13:57:07.599Z,2.15
2019-03-05T13:59:42.543Z,2.37
2019-03-05T14:02:11.607Z,2.27
2019-03-05T14:04:54.027Z,2.70
2019-03-05T14:08:31.767Z,2.70
2019-03-05T14:11:00.227Z,1.35
2019-03-05T14:13:28.793Z,2.72
2019-03-05T14:15:57.354Z,2.10
2019-03-05T14:18:25.943Z,2.42
2019-03-05T14:20:54.442Z,2.50
2019-03-05T14:23:22.898Z,2.25
2019-03-05T14:25:53.751Z,2.30
2019-03-05T14:28:20.089Z,1.77
2019-03-05T14:30:48.598Z,2.60
2019-03-05T14:33:17.123Z,2.75
2019-03-05T14:35:47.597Z,3.20
2019-03-05T14:38:14.947Z,2.77
2019-03-05T14:40:43.451Z,2.52
2019-03-05T14:43:12.009Z,2.52
2019-03-05T14:45:40.539Z,2.47
2019-03-05T14:48:09.298Z,2.55
2019-03-05T14:50:38.033Z,2.22
2019-03-05T14:53:06.573Z,2.10
2019-03-05T14:55:35.064Z,2.05
2019-03-05T14:58:03.989Z,2.30
2019-03-05T15:00:32.722Z,1.90
2019-03-05T15:03:01.150Z,1.62
2019-03-05T15:05:29.898Z,1.50
2019-03-05T15:07:58.415Z,2.27
2019-03-05T15:10:26.910Z,2.15
2019-03-05T15:12:55.626Z,1.92
2019-03-05T15:15:26.469Z,1.45
2019-03-05T15:17:55.009Z,1.70
2019-03-05T15:20:23.580Z,2.08
2019-03-05T15:22:52.054Z,1.67
2019-03-05T15:25:20.801Z,1.57
2019-03-05T15:27:49.315Z,2.20
2019-03-05T15:30:19.383Z,1.73
2019-03-05T15:32:48.470Z,1.57
2019-03-05T15:35:17.176Z,2.00
2019-03-05T15:37:46.258Z,1.90
2019-03-05T15:40:15.346Z,2.27
2019-03-05T15:42:43.935Z,1.87
2019-03-05T15:45:15.171Z,2.58
2019-03-05T15:47:43.808Z,2.17
2019-03-05T15:50:14.701Z,2.85
2019-03-05T15:52:43.441Z,3.15
2019-03-05T15:55:13.384Z,2.73
2019-03-05T15:57:42.124Z,3.02
2019-03-05T16:00:13.929Z,3.12
2019-03-05T16:02:43.493Z,2.52
2019-03-05T16:05:27.901Z,2.57
2019-03-05T16:07:56.615Z,2.20
2019-03-05T16:10:25.392Z,1.72
2019-03-05T16:12:53.838Z,1.92
2019-03-05T16:15:22.652Z,1.87
2019-03-05T16:17:51.144Z,1.80
2019-03-05T16:20:19.670Z,1.50
2019-03-05T16:22:51.177Z,1.85
2019-03-05T16:25:16.790Z,2.50
2019-03-05T16:27:45.324Z,2.75
2019-03-05T16:30:28.323Z,3.42
2019-03-05T16:33:01.165Z,3.65
2019-03-05T16:35:34.481Z,4.03
2019-03-05T16:38:08.238Z,3.55
2019-03-05T16:40:45.737Z,2.83
2019-03-05T16:43:19.118Z,3.25
2019-03-05T16:45:56.840Z,4.20
2019-03-05T16:48:31.382Z,3.55
2019-03-05T16:51:07.248Z,3.72
2019-03-05T16:53:43.956Z,3.92
2019-03-05T16:56:17.609Z,4.37
2019-03-05T16:59:53.552Z,6.45
2019-03-05T17:02:29.273Z,10.68
2019-03-05T17:07:08.660Z,8.95
2019-03-05T17:10:13.244Z,5.53
2019-03-05T17:12:41.931Z,5.10
2019-03-05T17:15:10.567Z,4.45
2019-03-05T17:17:39.011Z,4.92
2019-03-05T17:20:09.124Z,4.30
2019-03-05T17:22:37.700Z,5.08
2019-03-05T17:25:08.460Z,4.92
2019-03-05T17:27:37.135Z,5.00
2019-03-05T17:30:07.044Z,4.47
2019-03-05T17:32:35.532Z,4.65
2019-03-05T17:35:05.088Z,3.67
2019-03-05T17:37:35.139Z,3.45
2019-03-05T17:40:02.132Z,2.83
2019-03-05T17:42:31.072Z,2.72
2019-03-05T17:44:59.520Z,2.12
2019-03-05T17:47:28.049Z,2.55
2019-03-05T17:49:56.787Z,2.77
2019-03-05T17:52:25.324Z,4.60
2019-03-05T17:54:53.817Z,2.90
2019-03-05T17:57:22.343Z,3.55
2019-03-05T17:59:51.596Z,3.20
2019-03-05T18:02:20.480Z,2.53
2019-03-05T18:04:49.956Z,3.20
2019-03-05T18:07:19.000Z,2.92
2019-03-05T18:09:47.755Z,4.12
2019-03-05T18:12:16.436Z,2.90
2019-03-05T18:14:45.703Z,2.40
2019-03-05T18:17:14.188Z,1.50
2019-03-05T18:19:42.640Z,1.70
2019-03-05T18:22:11.178Z,2.20
2019-03-05T18:24:39.719Z,1.57
2019-03-05T18:27:08.508Z,1.60
2019-03-05T18:29:37.015Z,2.08
2019-03-05T18:32:05.531Z,2.10
2019-03-05T18:34:34.299Z,3.27
2019-03-05T18:37:02.776Z,2.93
2019-03-05T18:39:31.218Z,2.15
2019-03-05T18:41:59.759Z,2.83
2019-03-05T18:44:28.207Z,3.27
2019-03-05T18:46:57.499Z,3.50
2019-03-05T18:49:25.962Z,8.28
2019-03-05T18:51:54.531Z,10.83
2019-03-05T18:54:23.071Z,7.80
2019-03-05T18:56:51.779Z,7.60
2019-03-05T18:59:20.207Z,7.00
2019-03-05T19:01:48.727Z,7.67
2019-03-05T19:04:17.168Z,4.00
2019-03-05T19:06:45.879Z,4.77
2019-03-05T19:09:14.356Z,12.40
2019-03-05T19:11:42.852Z,8.80
2019-03-05T19:14:11.354Z,9.43
2019-03-05T19:16:39.833Z,10.37
2019-03-05T19:19:08.434Z,13.07
2019-03-05T19:21:36.950Z,12.37
2019-03-05T19:24:05.426Z,8.00
2019-03-05T19:26:33.924Z,8.27
2019-03-05T19:29:02.573Z,9.10
2019-03-05T19:31:31.144Z,12.03
2019-03-05T19:33:59.633Z,11.27
2019-03-05T19:36:28.464Z,12.13
2019-03-05T19:38:57.084Z,11.57
2019-03-05T19:41:25.576Z,8.67
2019-03-05T19:43:54.140Z,7.50
2019-03-05T19:46:22.952Z,5.63
2019-03-05T19:48:51.444Z,5.67
2019-03-05T19:51:19.859Z,6.23
2019-03-05T19:53:48.316Z,11.03
2019-03-05T19:56:16.912Z,11.10
2019-03-05T19:58:45.414Z,9.83
2019-03-05T20:01:17.663Z,9.17
2019-03-05T20:03:46.148Z,8.97
2019-03-05T20:06:16.733Z,11.28
2019-03-05T20:08:45.422Z,13.30
2019-03-05T20:11:14.357Z,12.65
2019-03-05T20:13:43.100Z,10.30
2019-03-05T20:16:13.690Z,8.15
2019-03-05T20:18:42.132Z,6.50
2019-03-05T20:21:10.665Z,6.35
2019-03-05T20:23:39.202Z,5.67
2019-03-05T20:26:07.720Z,5.80
2019-03-05T20:28:36.323Z,5.33
2019-03-05T20:31:05.266Z,5.63
2019-03-05T20:33:33.794Z,5.00
2019-03-05T20:36:02.323Z,6.50
2019-03-05T20:38:30.877Z,5.47
2019-03-05T20:41:00.987Z,5.80
2019-03-05T20:43:29.477Z,4.20
2019-03-05T20:46:02.439Z,4.40
2019-03-05T20:48:30.999Z,4.07
2019-03-05T20:50:59.679Z,4.73
2019-03-05T20:53:28.191Z,4.53
2019-03-05T20:55:56.634Z,4.17
2019-03-05T20:58:25.148Z,3.93
2019-03-05T21:00:53.635Z,4.57
2019-03-05T21:03:22.159Z,4.30
2019-03-05T21:05:51.000Z,4.20
2019-03-05T21:08:19.615Z,4.00
2019-03-05T21:10:48.411Z,4.77
2019-03-05T21:13:16.899Z,4.60
2019-03-05T21:15:45.511Z,4.17
2019-03-05T21:18:14.115Z,4.47
2019-03-05T21:20:42.759Z,4.20
2019-03-05T21:23:11.667Z,5.30
2019-03-05T21:25:40.331Z,5.33
2019-03-05T21:28:08.863Z,4.83
2019-03-05T21:30:37.396Z,4.40
2019-03-05T21:33:05.931Z,4.50
2019-03-05T21:35:34.718Z,3.87
2019-03-05T21:38:03.270Z,4.50
2019-03-05T21:40:31.698Z,4.20
2019-03-05T21:43:00.277Z,4.80
2019-03-05T21:45:32.433Z,4.43
2019-03-05T21:48:01.348Z,4.40
2019-03-05T21:50:29.820Z,4.65
2019-03-05T21:52:59.196Z,4.80
2019-03-05T21:55:27.653Z,5.17
2019-03-05T21:57:56.272Z,5.33
2019-03-05T22:00:26.525Z,5.22
2019-03-05T22:02:55.172Z,4.87
2019-03-05T22:05:23.697Z,4.80
2019-03-05T22:07:52.444Z,4.33
2019-03-05T22:10:21.002Z,4.40
2019-03-05T22:12:49.611Z,4.47
2019-03-05T22:15:19.049Z,4.33
2019-03-05T22:17:47.815Z,4.07
2019-03-05T22:20:16.498Z,3.67
2019-03-05T22:22:44.952Z,3.90
2019-03-05T22:25:15.456Z,3.60
2019-03-05T22:27:43.996Z,3.90
2019-03-05T22:30:17.676Z,4.00
2019-03-05T22:32:46.925Z,4.10
2019-03-05T22:35:16.378Z,3.93
2019-03-05T22:37:44.822Z,3.98
2019-03-05T22:40:13.392Z,3.37
2019-03-05T22:42:42.258Z,3.70
2019-03-05T22:45:15.138Z,3.75
2019-03-05T22:47:43.806Z,3.47
2019-03-05T22:50:12.749Z,3.80
2019-03-05T22:52:41.226Z,3.33
2019-03-05T22:55:10.374Z,3.53
2019-03-05T22:57:38.882Z,3.13
2019-03-05T23:00:11.466Z,3.63
2019-03-05T23:02:40.150Z,3.73
2019-03-05T23:05:09.414Z,3.70
2019-03-05T23:07:37.925Z,3.47
2019-03-05T23:10:06.801Z,3.42
2019-03-05T23:12:35.477Z,3.17
2019-03-05T23:15:04.833Z,3.27
2019-03-05T23:17:33.546Z,3.80
2019-03-05T23:20:02.785Z,3.23
2019-03-05T23:22:31.420Z,3.67
2019-03-05T23:25:00.255Z,4.40
2019-03-05T23:27:28.757Z,4.15
2019-03-05T23:29:57.650Z,2.87
2019-03-05T23:32:26.110Z,2.65
2019-03-05T23:34:54.790Z,2.83
2019-03-05T23:37:23.626Z,3.00
2019-03-05T23:39:52.377Z,3.00
2019-03-05T23:42:21.441Z,2.80
2019-03-05T23:44:50.149Z,2.87
2019-03-05T23:47:18.697Z,2.67
2019-03-05T23:49:47.142Z,2.95
2019-03-05T23:52:16.033Z,2.77
2019-03-05T23:54:44.494Z,3.20
2019-03-05T23:57:13.096Z,3.17
2019-03-05T23:59:42.205Z,2.70
